sensor_id;sensor_type;location;lat;lon;timestamp;P1;durP1;ratioP1;P2;durP2;ratioP2
51010;SDS011;37038;50.182;8.624;2022-10-16T00:02:13;6.88;;;3.15;;
51010;SDS011;37038;50.182;8.624;2022-10-16T00:05:41;6.65;;;3.03;;
51010;SDS011;37038;50.182;8.624;2022-10-16T00:12:22;5.93;;;2.78;;
51010;SDS011;37038;50.182;8.624;2022-10-16T00:15:23;4.32;;;2.65;;
51010;SDS011;37038;50.182;8.624;2022-10-16T00:18:44;2.75;;;2.55;;
51010;SDS011;37038;50.182;8.624;2022-10-16T00:22:46;7.13;;;3.40;;
51010;SDS011;37038;50.182;8.624;2022-10-16T00:29:30;6.38;;;4.00;;
51010;SDS011;37038;50.182;8.624;2022-10-16T00:32:22;8.10;;;4.45;;
51010;SDS011;37038;50.182;8.624;2022-10-16T00:35:30;6.35;;;5.38;;
51010;SDS011;37038;50.182;8.624;2022-10-16T00:41:55;9.60;;;6.22;;
51010;SDS011;37038;50.182;8.624;2022-10-16T00:45:14;7.80;;;6.00;;
51010;SDS011;37038;50.182;8.624;2022-10-16T00:48:21;8.70;;;7.75;;
51010;SDS011;37038;50.182;8.624;2022-10-16T00:51:18;9.68;;;8.13;;
51010;SDS011;37038;50.182;8.624;2022-10-16T00:54:20;11.32;;;10.07;;
51010;SDS011;37038;50.182;8.624;2022-10-16T00:57:36;11.32;;;10.23;;
51010;SDS011;37038;50.182;8.624;2022-10-16T01:00:50;14.70;;;11.02;;
51010;SDS011;37038;50.182;8.624;2022-10-16T01:03:47;13.07;;;11.38;;
51010;SDS011;37038;50.182;8.624;2022-10-16T01:10:40;13.90;;;12.48;;
51010;SDS011;37038;50.182;8.624;2022-10-16T01:13:38;15.57;;;13.27;;
51010;SDS011;37038;50.182;8.624;2022-10-16T01:16:53;14.73;;;11.05;;
51010;SDS011;37038;50.182;8.624;2022-10-16T01:23:49;19.15;;;14.82;;
51010;SDS011;37038;50.182;8.624;2022-10-16T01:27:31;21.98;;;16.27;;
51010;SDS011;37038;50.182;8.624;2022-10-16T01:34:32;24.45;;;17.80;;
51010;SDS011;37038;50.182;8.624;2022-10-16T01:38:35;18.40;;;14.65;;
51010;SDS011;37038;50.182;8.624;2022-10-16T01:41:54;20.83;;;15.88;;
51010;SDS011;37038;50.182;8.624;2022-10-16T01:45:02;26.02;;;17.27;;
51010;SDS011;37038;50.182;8.624;2022-10-16T01:48:28;22.67;;;18.73;;
51010;SDS011;37038;50.182;8.624;2022-10-16T01:51:40;21.85;;;16.45;;
51010;SDS011;37038;50.182;8.624;2022-10-16T01:54:46;19.02;;;16.65;;
51010;SDS011;37038;50.182;8.624;2022-10-16T01:58:10;22.05;;;18.85;;
51010;SDS011;37038;50.182;8.624;2022-10-16T02:04:48;21.20;;;18.77;;
51010;SDS011;37038;50.182;8.624;2022-10-16T02:08:41;22.80;;;19.25;;
51010;SDS011;37038;50.182;8.624;2022-10-16T02:11:52;26.65;;;20.58;;
51010;SDS011;37038;50.182;8.624;2022-10-16T02:18:53;31.75;;;22.83;;
51010;SDS011;37038;50.182;8.624;2022-10-16T02:22:35;32.40;;;22.90;;
51010;SDS011;37038;50.182;8.624;2022-10-16T02:25:37;32.72;;;25.55;;
51010;SDS011;37038;50.182;8.624;2022-10-16T02:29:29;31.98;;;23.55;;
51010;SDS011;37038;50.182;8.624;2022-10-16T02:33:08;31.23;;;22.95;;
51010;SDS011;37038;50.182;8.624;2022-10-16T02:36:48;32.10;;;24.27;;
51010;SDS011;37038;50.182;8.624;2022-10-16T02:39:52;29.25;;;22.27;;
51010;SDS011;37038;50.182;8.624;2022-10-16T02:43:24;26.80;;;20.20;;
51010;SDS011;37038;50.182;8.624;2022-10-16T02:50:22;26.65;;;21.83;;
51010;SDS011;37038;50.182;8.624;2022-10-16T02:53:35;27.33;;;21.75;;
51010;SDS011;37038;50.182;8.624;2022-10-16T02:56:38;26.25;;;19.50;;
51010;SDS011;37038;50.182;8.624;2022-10-16T02:59:33;28.73;;;21.27;;
51010;SDS011;37038;50.182;8.624;2022-10-16T03:02:41;29.30;;;20.58;;
51010;SDS011;37038;50.182;8.624;2022-10-16T03:05:38;20.15;;;15.65;;
51010;SDS011;37038;50.182;8.624;2022-10-16T03:08:49;17.02;;;15.13;;
51010;SDS011;37038;50.182;8.624;2022-10-16T03:11:44;22.40;;;14.50;;
51010;SDS011;37038;50.182;8.624;2022-10-16T03:14:34;18.42;;;13.30;;
51010;SDS011;37038;50.182;8.624;2022-10-16T03:20:26;13.82;;;10.18;;
51010;SDS011;37038;50.182;8.624;2022-10-16T03:23:17;8.52;;;7.18;;
51010;SDS011;37038;50.182;8.624;2022-10-16T03:26:08;10.88;;;9.18;;
51010;SDS011;37038;50.182;8.624;2022-10-16T03:29:00;8.02;;;7.22;;
51010;SDS011;37038;50.182;8.624;2022-10-16T03:31:59;10.13;;;7.88;;
51010;SDS011;37038;50.182;8.624;2022-10-16T03:34:55;8.88;;;7.32;;
51010;SDS011;37038;50.182;8.624;2022-10-16T03:37:54;11.68;;;7.13;;
51010;SDS011;37038;50.182;8.624;2022-10-16T03:40:57;8.98;;;8.07;;
51010;SDS011;37038;50.182;8.624;2022-10-16T03:43:52;8.35;;;7.55;;
51010;SDS011;37038;50.182;8.624;2022-10-16T03:46:41;9.68;;;7.30;;
51010;SDS011;37038;50.182;8.624;2022-10-16T03:49:30;7.63;;;6.97;;
51010;SDS011;37038;50.182;8.624;2022-10-16T03:52:23;10.25;;;7.60;;
51010;SDS011;37038;50.182;8.624;2022-10-16T03:55:19;8.50;;;7.53;;
51010;SDS011;37038;50.182;8.624;2022-10-16T03:58:21;9.30;;;5.65;;
51010;SDS011;37038;50.182;8.624;2022-10-16T04:01:22;8.85;;;5.82;;
51010;SDS011;37038;50.182;8.624;2022-10-16T04:04:16;7.15;;;6.45;;
51010;SDS011;37038;50.182;8.624;2022-10-16T04:07:05;8.00;;;5.93;;
51010;SDS011;37038;50.182;8.624;2022-10-16T04:10:12;9.15;;;6.18;;
51010;SDS011;37038;50.182;8.624;2022-10-16T04:13:12;6.97;;;6.28;;
51010;SDS011;37038;50.182;8.624;2022-10-16T04:16:18;7.85;;;5.55;;
51010;SDS011;37038;50.182;8.624;2022-10-16T04:19:10;6.75;;;5.30;;
51010;SDS011;37038;50.182;8.624;2022-10-16T04:22:05;6.95;;;6.25;;
51010;SDS011;37038;50.182;8.624;2022-10-16T04:25:01;10.25;;;4.60;;
51010;SDS011;37038;50.182;8.624;2022-10-16T04:28:25;7.93;;;5.72;;
51010;SDS011;37038;50.182;8.624;2022-10-16T04:31:37;7.43;;;5.60;;
51010;SDS011;37038;50.182;8.624;2022-10-16T04:34:54;5.55;;;4.85;;
51010;SDS011;37038;50.182;8.624;2022-10-16T04:37:57;8.90;;;5.63;;
51010;SDS011;37038;50.182;8.624;2022-10-16T04:41:01;11.85;;;4.85;;
51010;SDS011;37038;50.182;8.624;2022-10-16T04:44:34;7.22;;;5.35;;
51010;SDS011;37038;50.182;8.624;2022-10-16T04:47:35;6.32;;;5.40;;
51010;SDS011;37038;50.182;8.624;2022-10-16T04:50:39;5.30;;;4.80;;
51010;SDS011;37038;50.182;8.624;2022-10-16T04:53:48;6.28;;;5.15;;
51010;SDS011;37038;50.182;8.624;2022-10-16T04:57:43;5.43;;;4.38;;
51010;SDS011;37038;50.182;8.624;2022-10-16T05:00:35;5.05;;;4.45;;
51010;SDS011;37038;50.182;8.624;2022-10-16T05:03:35;6.05;;;4.22;;
51010;SDS011;37038;50.182;8.624;2022-10-16T05:06:55;10.15;;;4.20;;
51010;SDS011;37038;50.182;8.624;2022-10-16T05:10:03;5.45;;;4.10;;
51010;SDS011;37038;50.182;8.624;2022-10-16T05:13:04;6.00;;;4.43;;
51010;SDS011;37038;50.182;8.624;2022-10-16T05:16:07;4.55;;;4.15;;
51010;SDS011;37038;50.182;8.624;2022-10-16T05:19:09;4.47;;;4.07;;
51010;SDS011;37038;50.182;8.624;2022-10-16T05:22:15;4.85;;;3.30;;
51010;SDS011;37038;50.182;8.624;2022-10-16T05:25:14;5.68;;;4.05;;
51010;SDS011;37038;50.182;8.624;2022-10-16T05:28:08;4.97;;;3.88;;
51010;SDS011;37038;50.182;8.624;2022-10-16T05:30:57;7.40;;;4.40;;
51010;SDS011;37038;50.182;8.624;2022-10-16T05:38:28;6.38;;;4.93;;
51010;SDS011;37038;50.182;8.624;2022-10-16T05:41:17;5.43;;;4.18;;
51010;SDS011;37038;50.182;8.624;2022-10-16T05:44:09;3.67;;;3.38;;
51010;SDS011;37038;50.182;8.624;2022-10-16T05:47:00;7.22;;;5.03;;
51010;SDS011;37038;50.182;8.624;2022-10-16T05:49:48;7.32;;;4.85;;
51010;SDS011;37038;50.182;8.624;2022-10-16T05:52:36;9.52;;;4.10;;
51010;SDS011;37038;50.182;8.624;2022-10-16T05:55:25;7.35;;;4.15;;
51010;SDS011;37038;50.182;8.624;2022-10-16T05:58:16;5.35;;;4.05;;
51010;SDS011;37038;50.182;8.624;2022-10-16T06:01:12;5.82;;;4.18;;
51010;SDS011;37038;50.182;8.624;2022-10-16T06:04:11;8.73;;;3.80;;
51010;SDS011;37038;50.182;8.624;2022-10-16T06:07:02;5.28;;;4.70;;
51010;SDS011;37038;50.182;8.624;2022-10-16T06:09:50;7.47;;;4.93;;
51010;SDS011;37038;50.182;8.624;2022-10-16T06:12:39;5.60;;;5.00;;
51010;SDS011;37038;50.182;8.624;2022-10-16T06:15:27;5.30;;;4.47;;
51010;SDS011;37038;50.182;8.624;2022-10-16T06:18:16;4.93;;;3.90;;
51010;SDS011;37038;50.182;8.624;2022-10-16T06:21:08;8.25;;;4.65;;
51010;SDS011;37038;50.182;8.624;2022-10-16T06:23:59;6.13;;;5.20;;
51010;SDS011;37038;50.182;8.624;2022-10-16T06:26:49;4.85;;;4.35;;
51010;SDS011;37038;50.182;8.624;2022-10-16T06:29:40;4.78;;;4.35;;
51010;SDS011;37038;50.182;8.624;2022-10-16T06:32:28;5.78;;;4.47;;
51010;SDS011;37038;50.182;8.624;2022-10-16T06:35:19;6.90;;;4.85;;
51010;SDS011;37038;50.182;8.624;2022-10-16T06:38:07;9.23;;;4.68;;
51010;SDS011;37038;50.182;8.624;2022-10-16T06:40:59;5.32;;;4.25;;
51010;SDS011;37038;50.182;8.624;2022-10-16T06:43:51;7.63;;;4.38;;
51010;SDS011;37038;50.182;8.624;2022-10-16T06:46:41;8.45;;;5.25;;
51010;SDS011;37038;50.182;8.624;2022-10-16T06:49:29;5.18;;;4.30;;
51010;SDS011;37038;50.182;8.624;2022-10-16T06:52:18;4.00;;;3.70;;
51010;SDS011;37038;50.182;8.624;2022-10-16T06:55:11;5.83;;;3.77;;
51010;SDS011;37038;50.182;8.624;2022-10-16T06:58:11;7.90;;;4.35;;
51010;SDS011;37038;50.182;8.624;2022-10-16T07:01:05;4.50;;;4.10;;
51010;SDS011;37038;50.182;8.624;2022-10-16T07:04:01;6.38;;;4.47;;
51010;SDS011;37038;50.182;8.624;2022-10-16T07:06:57;6.35;;;4.68;;
51010;SDS011;37038;50.182;8.624;2022-10-16T07:10:01;5.22;;;4.72;;
51010;SDS011;37038;50.182;8.624;2022-10-16T07:12:58;8.90;;;5.03;;
51010;SDS011;37038;50.182;8.624;2022-10-16T07:16:08;4.85;;;4.35;;
51010;SDS011;37038;50.182;8.624;2022-10-16T07:19:40;5.35;;;4.68;;
51010;SDS011;37038;50.182;8.624;2022-10-16T07:22:40;5.82;;;5.32;;
51010;SDS011;37038;50.182;8.624;2022-10-16T07:25:52;6.43;;;4.97;;
51010;SDS011;37038;50.182;8.624;2022-10-16T07:28:55;5.45;;;4.22;;
51010;SDS011;37038;50.182;8.624;2022-10-16T07:31:46;5.50;;;5.00;;
51010;SDS011;37038;50.182;8.624;2022-10-16T07:34:41;5.55;;;5.05;;
51010;SDS011;37038;50.182;8.624;2022-10-16T07:37:43;6.25;;;5.65;;
51010;SDS011;37038;50.182;8.624;2022-10-16T07:40:36;5.78;;;5.00;;
51010;SDS011;37038;50.182;8.624;2022-10-16T07:43:25;9.13;;;6.00;;
51010;SDS011;37038;50.182;8.624;2022-10-16T07:46:40;6.30;;;5.15;;
51010;SDS011;37038;50.182;8.624;2022-10-16T07:52:25;6.80;;;5.38;;
51010;SDS011;37038;50.182;8.624;2022-10-16T08:53:18;5.75;;;5.03;;
51010;SDS011;37038;50.182;8.624;2022-10-16T08:56:26;6.25;;;5.50;;
51010;SDS011;37038;50.182;8.624;2022-10-16T08:59:18;6.90;;;6.20;;
51010;SDS011;37038;50.182;8.624;2022-10-16T09:05:42;6.78;;;6.05;;
51010;SDS011;37038;50.182;8.624;2022-10-16T09:18:26;9.32;;;6.03;;
51010;SDS011;37038;50.182;8.624;2022-10-16T09:21:43;11.02;;;5.90;;
51010;SDS011;37038;50.182;8.624;2022-10-16T09:24:36;5.60;;;5.10;;
51010;SDS011;37038;50.182;8.624;2022-10-16T09:27:25;6.75;;;6.00;;
51010;SDS011;37038;50.182;8.624;2022-10-16T09:30:30;7.75;;;6.30;;
51010;SDS011;37038;50.182;8.624;2022-10-16T09:34:04;5.50;;;5.00;;
51010;SDS011;37038;50.182;8.624;2022-10-16T09:38:00;6.22;;;4.70;;
51010;SDS011;37038;50.182;8.624;2022-10-16T09:53:11;5.72;;;4.32;;
51010;SDS011;37038;50.182;8.624;2022-10-16T09:56:10;4.72;;;4.07;;
51010;SDS011;37038;50.182;8.624;2022-10-16T09:59:56;6.28;;;4.95;;
51010;SDS011;37038;50.182;8.624;2022-10-16T10:03:38;6.07;;;4.40;;
51010;SDS011;37038;50.182;8.624;2022-10-16T10:10:29;8.10;;;5.82;;
51010;SDS011;37038;50.182;8.624;2022-10-16T10:13:52;6.30;;;5.72;;
51010;SDS011;37038;50.182;8.624;2022-10-16T10:17:18;5.22;;;4.72;;
51010;SDS011;37038;50.182;8.624;2022-10-16T10:24:36;6.25;;;4.45;;
51010;SDS011;37038;50.182;8.624;2022-10-16T10:45:55;3.08;;;2.53;;
51010;SDS011;37038;50.182;8.624;2022-10-16T11:26:30;3.40;;;3.10;;
51010;SDS011;37038;50.182;8.624;2022-10-16T11:29:27;3.92;;;3.00;;
51010;SDS011;37038;50.182;8.624;2022-10-16T11:32:35;4.60;;;2.88;;
51010;SDS011;37038;50.182;8.624;2022-10-16T11:36:28;4.03;;;3.38;;
51010;SDS011;37038;50.182;8.624;2022-10-16T11:49:29;8.43;;;4.15;;
51010;SDS011;37038;50.182;8.624;2022-10-16T11:56:19;7.35;;;5.40;;
51010;SDS011;37038;50.182;8.624;2022-10-16T12:03:22;8.73;;;7.45;;
51010;SDS011;37038;50.182;8.624;2022-10-16T12:10:31;8.82;;;7.93;;
51010;SDS011;37038;50.182;8.624;2022-10-16T12:16:26;9.40;;;8.52;;
51010;SDS011;37038;50.182;8.624;2022-10-16T12:19:28;8.07;;;7.47;;
51010;SDS011;37038;50.182;8.624;2022-10-16T12:35:43;3.63;;;3.33;;
51010;SDS011;37038;50.182;8.624;2022-10-16T13:30:54;3.75;;;2.42;;
51010;SDS011;37038;50.182;8.624;2022-10-16T13:35:03;2.33;;;2.13;;
51010;SDS011;37038;50.182;8.624;2022-10-16T13:43:18;2.70;;;1.90;;
51010;SDS011;37038;50.182;8.624;2022-10-16T13:50:42;3.05;;;2.83;;
51010;SDS011;37038;50.182;8.624;2022-10-16T15:43:33;3.00;;;2.80;;
51010;SDS011;37038;50.182;8.624;2022-10-16T15:46:24;3.67;;;3.30;;
51010;SDS011;37038;50.182;8.624;2022-10-16T15:49:26;3.75;;;3.00;;
51010;SDS011;37038;50.182;8.624;2022-10-16T15:55:02;5.40;;;3.05;;
51010;SDS011;37038;50.182;8.624;2022-10-16T15:58:16;5.00;;;2.83;;
51010;SDS011;37038;50.182;8.624;2022-10-16T16:01:20;4.53;;;3.42;;
51010;SDS011;37038;50.182;8.624;2022-10-16T16:04:11;5.35;;;2.95;;
51010;SDS011;37038;50.182;8.624;2022-10-16T16:07:35;6.57;;;3.35;;
51010;SDS011;37038;50.182;8.624;2022-10-16T16:10:40;3.63;;;3.35;;
51010;SDS011;37038;50.182;8.624;2022-10-16T16:13:40;3.67;;;3.38;;
51010;SDS011;37038;50.182;8.624;2022-10-16T16:19:53;4.30;;;3.90;;
51010;SDS011;37038;50.182;8.624;2022-10-16T16:23:04;4.25;;;3.83;;
51010;SDS011;37038;50.182;8.624;2022-10-16T16:29:40;5.95;;;4.63;;
51010;SDS011;37038;50.182;8.624;2022-10-16T16:32:50;5.55;;;4.68;;
51010;SDS011;37038;50.182;8.624;2022-10-16T16:36:06;5.97;;;5.40;;
51010;SDS011;37038;50.182;8.624;2022-10-16T16:39:21;6.32;;;5.72;;
51010;SDS011;37038;50.182;8.624;2022-10-16T16:42:50;8.30;;;5.60;;
51010;SDS011;37038;50.182;8.624;2022-10-16T16:47:26;6.40;;;5.80;;
51010;SDS011;37038;50.182;8.624;2022-10-16T20:51:59;19.67;;;17.63;;
51010;SDS011;37038;50.182;8.624;2022-10-16T20:54:59;20.98;;;18.92;;
51010;SDS011;37038;50.182;8.624;2022-10-16T21:01:34;19.08;;;17.17;;
51010;SDS011;37038;50.182;8.624;2022-10-16T21:04:52;24.73;;;21.92;;
51010;SDS011;37038;50.182;8.624;2022-10-16T21:07:44;24.83;;;22.42;;
51010;SDS011;37038;50.182;8.624;2022-10-16T21:10:55;23.10;;;20.67;;
51010;SDS011;37038;50.182;8.624;2022-10-16T21:13:50;23.70;;;19.52;;
51010;SDS011;37038;50.182;8.624;2022-10-16T21:16:55;25.35;;;22.70;;
51010;SDS011;37038;50.182;8.624;2022-10-16T21:19:58;23.92;;;21.42;;
51010;SDS011;37038;50.182;8.624;2022-10-16T21:22:57;29.08;;;22.10;;
51010;SDS011;37038;50.182;8.624;2022-10-16T21:25:55;22.52;;;19.85;;
51010;SDS011;37038;50.182;8.624;2022-10-16T21:28:44;29.45;;;22.75;;
51010;SDS011;37038;50.182;8.624;2022-10-16T21:31:36;28.75;;;24.77;;
51010;SDS011;37038;50.182;8.624;2022-10-16T21:34:34;22.98;;;20.45;;
51010;SDS011;37038;50.182;8.624;2022-10-16T21:37:25;21.02;;;18.95;;
51010;SDS011;37038;50.182;8.624;2022-10-16T21:40:16;23.85;;;21.20;;
51010;SDS011;37038;50.182;8.624;2022-10-16T21:43:07;22.25;;;19.70;;
51010;SDS011;37038;50.182;8.624;2022-10-16T21:45:58;19.70;;;17.58;;
51010;SDS011;37038;50.182;8.624;2022-10-16T21:48:47;17.80;;;14.93;;
51010;SDS011;37038;50.182;8.624;2022-10-16T21:51:40;21.17;;;18.92;;
51010;SDS011;37038;50.182;8.624;2022-10-16T21:54:34;20.73;;;18.55;;
51010;SDS011;37038;50.182;8.624;2022-10-16T21:57:22;19.75;;;16.92;;
51010;SDS011;37038;50.182;8.624;2022-10-16T22:00:11;26.15;;;21.13;;
51010;SDS011;37038;50.182;8.624;2022-10-16T22:03:00;23.10;;;20.42;;
51010;SDS011;37038;50.182;8.624;2022-10-16T22:05:49;26.63;;;22.20;;
51010;SDS011;37038;50.182;8.624;2022-10-16T22:08:38;18.08;;;15.70;;
51010;SDS011;37038;50.182;8.624;2022-10-16T22:11:31;18.52;;;14.23;;
51010;SDS011;37038;50.182;8.624;2022-10-16T22:14:28;14.00;;;11.50;;
51010;SDS011;37038;50.182;8.624;2022-10-16T22:17:16;15.88;;;13.65;;
51010;SDS011;37038;50.182;8.624;2022-10-16T22:20:10;16.65;;;13.60;;
51010;SDS011;37038;50.182;8.624;2022-10-16T22:22:58;17.95;;;13.73;;
51010;SDS011;37038;50.182;8.624;2022-10-16T22:25:49;16.80;;;13.32;;
51010;SDS011;37038;50.182;8.624;2022-10-16T22:28:41;14.70;;;12.90;;
51010;SDS011;37038;50.182;8.624;2022-10-16T22:31:29;18.02;;;12.98;;
51010;SDS011;37038;50.182;8.624;2022-10-16T22:34:18;14.18;;;12.73;;
51010;SDS011;37038;50.182;8.624;2022-10-16T22:37:06;14.18;;;12.70;;
51010;SDS011;37038;50.182;8.624;2022-10-16T22:40:00;14.88;;;12.23;;
51010;SDS011;37038;50.182;8.624;2022-10-16T22:42:49;15.43;;;13.82;;
51010;SDS011;37038;50.182;8.624;2022-10-16T22:45:39;18.55;;;15.23;;
51010;SDS011;37038;50.182;8.624;2022-10-16T22:48:30;14.05;;;12.63;;
51010;SDS011;37038;50.182;8.624;2022-10-16T22:51:22;15.95;;;14.25;;
51010;SDS011;37038;50.182;8.624;2022-10-16T22:54:12;17.17;;;12.07;;
51010;SDS011;37038;50.182;8.624;2022-10-16T22:57:03;15.35;;;13.05;;
51010;SDS011;37038;50.182;8.624;2022-10-16T22:59:51;22.77;;;13.38;;
51010;SDS011;37038;50.182;8.624;2022-10-16T23:02:39;19.10;;;13.82;;
51010;SDS011;37038;50.182;8.624;2022-10-16T23:05:28;17.20;;;13.25;;
51010;SDS011;37038;50.182;8.624;2022-10-16T23:08:16;18.77;;;15.38;;
51010;SDS011;37038;50.182;8.624;2022-10-16T23:11:05;19.73;;;15.98;;
51010;SDS011;37038;50.182;8.624;2022-10-16T23:13:58;18.83;;;13.77;;
51010;SDS011;37038;50.182;8.624;2022-10-16T23:16:53;15.90;;;14.15;;
51010;SDS011;37038;50.182;8.624;2022-10-16T23:19:44;16.67;;;12.40;;
51010;SDS011;37038;50.182;8.624;2022-10-16T23:22:33;16.50;;;13.48;;
51010;SDS011;37038;50.182;8.624;2022-10-16T23:25:23;21.27;;;14.20;;
51010;SDS011;37038;50.182;8.624;2022-10-16T23:28:12;18.63;;;12.75;;
51010;SDS011;37038;50.182;8.624;2022-10-16T23:31:04;16.75;;;14.95;;
51010;SDS011;37038;50.182;8.624;2022-10-16T23:33:57;15.73;;;13.00;;
51010;SDS011;37038;50.182;8.624;2022-10-16T23:36:45;17.42;;;15.27;;
51010;SDS011;37038;50.182;8.624;2022-10-16T23:39:37;14.55;;;12.82;;
51010;SDS011;37038;50.182;8.624;2022-10-16T23:42:28;16.08;;;13.98;;
51010;SDS011;37038;50.182;8.624;2022-10-16T23:45:16;17.05;;;12.60;;
51010;SDS011;37038;50.182;8.624;2022-10-16T23:48:05;16.30;;;13.80;;
51010;SDS011;37038;50.182;8.624;2022-10-16T23:50:53;17.45;;;14.38;;
51010;SDS011;37038;50.182;8.624;2022-10-16T23:53:44;14.80;;;12.07;;
51010;SDS011;37038;50.182;8.624;2022-10-16T23:56:33;15.00;;;13.43;;
51010;SDS011;37038;50.182;8.624;2022-10-16T23:59:21;12.90;;;11.57;;
